Погода Штерменна неделю

Эльбасан, Албания

24 - 30 июля
  • 24июля
    Сегодня
    +20°
    +34°
    Небольшая облачность, возможен дождь с грозой
    ВремяПогодаТемператураВлажностьДавлениеВетер, м/сВероятность осадков
    02:00Ясно и безоблачно+25°C73 %752 мм1.1 м/с2 %
    05:00Ясно и безоблачно+22°C72 %751 мм1.2 м/с2 %
    08:00Ясно и безоблачно+24°C62 %751 мм0.4 м/с2 %
    11:00Ясно и безоблачно+31°C53 %751 мм2.0 м/с2 %
    14:00Небольшая облачность, возможен дождь с грозой+34°C57 %751 мм0.8 м/с8 %
    17:00Небольшая облачность, возможен дождь с грозой+31°C63 %751 мм0.5 м/с22 %
    20:00Ясно и безоблачно+30°C74 %750 мм1.1 м/с5 %
    23:00Ясно и безоблачно+26°C80 %750 мм0.7 м/с1 %
  • 25июля
    Четверг
    +19°
    +37°
    Ясно и безоблачно
    ВремяПогодаТемператураВлажностьДавлениеВетер, м/сВероятность осадков
    02:00Ясно и безоблачно+24°C85 %750 мм1.8 м/с2 %
    05:00Ясно и безоблачно+22°C81 %749 мм2.5 м/с2 %
    08:00Ясно и безоблачно+23°C63 %750 мм1.9 м/с2 %
    11:00Ясно и безоблачно+31°C38 %750 мм1.2 м/с3 %
    14:00Ясно и безоблачно+35°C32 %749 мм2.0 м/с3 %
    17:00Ясно и безоблачно+36°C29 %748 мм3.6 м/с3 %
    20:00Ясно и безоблачно+30°C54 %749 мм2.8 м/с2 %
    23:00Ясно и безоблачно+25°C74 %750 мм0.9 м/с2 %
  • 26июля
    Пятница
    +18°
    +36°
    Ясно и безоблачно
    ВремяПогодаТемператураВлажностьДавлениеВетер, м/сВероятность осадков
    02:00Ясно и безоблачно+23°C72 %750 мм1.6 м/с2 %
    05:00Ясно и безоблачно+21°C61 %750 мм2.6 м/с2 %
    08:00Ясно и безоблачно+22°C52 %751 мм1.9 м/с2 %
    11:00Ясно и безоблачно+30°C30 %751 мм0.9 м/с2 %
    14:00Ясно и безоблачно+35°C26 %751 мм0.8 м/с2 %
    17:00Ясно и безоблачно+35°C30 %751 мм3.0 м/с2 %
    20:00Ясно и безоблачно+29°C58 %752 мм1.0 м/с2 %
    23:00Ясно и безоблачно+23°C69 %753 мм1.1 м/с2 %
  • 27июля
    Суббота
    +19°
    +37°
    Ясно и безоблачно
    ВремяПогодаТемператураВлажностьДавлениеВетер, м/сВероятность осадков
    02:00Ясно и безоблачно+21°C67 %753 мм1.1 м/с2 %
    05:00Ясно и безоблачно+20°C58 %753 мм2.5 м/с2 %
    08:00Ясно и безоблачно+22°C48 %754 мм2.2 м/с2 %
    11:00Ясно и безоблачно+30°C29 %755 мм0.7 м/с2 %
    14:00Ясно и безоблачно+36°C24 %754 мм0.9 м/с2 %
    17:00Ясно и безоблачно+37°C25 %754 мм3.2 м/с2 %
    20:00Ясно и безоблачно+31°C47 %755 мм0.5 м/с2 %
    23:00Ясно и безоблачно+25°C60 %756 мм1.1 м/с2 %
  • 28июля
    Воскресенье
    +19°
    +38°
    Ясно и безоблачно
    ВремяПогодаТемператураВлажностьДавлениеВетер, м/сВероятность осадков
    02:00Ясно и безоблачно+23°C60 %756 мм1.7 м/с2 %
    05:00Ясно и безоблачно+20°C63 %756 мм2.2 м/с2 %
    08:00Ясно и безоблачно+23°C53 %757 мм1.5 м/с2 %
    11:00Ясно и безоблачно+31°C30 %757 мм1.4 м/с2 %
    14:00Ясно и безоблачно+37°C23 %756 мм2.1 м/с2 %
    17:00Ясно и безоблачно+36°C33 %756 мм3.6 м/с2 %
    20:00Ясно и безоблачно+31°C55 %755 мм1.3 м/с2 %
    23:00Ясно и безоблачно+26°C63 %756 мм1.1 м/с2 %
Мы используем cookies
Соглашаюсь